createdAt,value
2022-08-07T00:02:35.640Z,19.30
2022-08-07T00:03:50.628Z,19.30
2022-08-07T00:06:29.281Z,19.20
2022-08-07T00:08:49.553Z,19.10
2022-08-07T00:11:19.912Z,19.10
2022-08-07T00:13:48.507Z,19.00
2022-08-07T00:16:27.897Z,19.00
2022-08-07T00:18:49.235Z,18.90
2022-08-07T00:21:57.003Z,18.70
2022-08-07T00:23:48.410Z,18.80
2022-08-07T00:26:36.199Z,18.80
2022-08-07T00:28:56.454Z,18.80
2022-08-07T00:31:18.387Z,18.70
2022-08-07T00:33:47.669Z,18.70
2022-08-07T00:36:16.777Z,18.70
2022-08-07T00:38:45.653Z,18.70
2022-08-07T00:41:14.825Z,18.60
2022-08-07T00:44:01.780Z,18.50
2022-08-07T00:46:15.780Z,18.50
2022-08-07T00:48:44.476Z,18.50
2022-08-07T00:51:15.785Z,18.40
2022-08-07T00:53:50.663Z,18.40
2022-08-07T00:56:15.662Z,18.40
2022-08-07T00:58:47.284Z,18.30
2022-08-07T01:01:17.340Z,18.30
2022-08-07T01:03:57.020Z,18.30
2022-08-07T01:06:17.588Z,18.20
2022-08-07T01:08:53.796Z,18.20
2022-08-07T01:12:27.578Z,18.10
2022-08-07T01:13:56.006Z,18.10
2022-08-07T01:16:30.202Z,18.10
2022-08-07T01:18:49.566Z,18.00
2022-08-07T01:21:25.800Z,17.90
2022-08-07T01:23:55.150Z,17.90
2022-08-07T01:26:26.208Z,17.80
2022-08-07T01:28:55.461Z,17.80
2022-08-07T01:31:26.844Z,17.80
2022-08-07T01:33:57.579Z,17.70
2022-08-07T01:36:33.574Z,17.50
2022-08-07T01:39:00.429Z,17.50
2022-08-07T01:41:29.446Z,17.60
2022-08-07T01:43:59.705Z,17.60
2022-08-07T01:46:31.285Z,17.10
2022-08-07T01:49:00.153Z,17.60
2022-08-07T01:52:01.600Z,17.50
2022-08-07T01:54:33.003Z,17.40
2022-08-07T01:56:56.279Z,17.40
2022-08-07T01:59:35.197Z,17.40
2022-08-07T02:02:13.138Z,17.40
2022-08-07T02:04:56.666Z,17.30
2022-08-07T02:07:24.890Z,17.20
2022-08-07T02:09:59.021Z,17.30
2022-08-07T02:12:31.145Z,17.10
2022-08-07T02:15:01.476Z,17.20
2022-08-07T02:17:34.379Z,17.20
2022-08-07T02:20:09.926Z,17.20
2022-08-07T02:22:41.416Z,17.30
2022-08-07T02:25:17.541Z,17.20
2022-08-07T02:27:51.203Z,17.20
2022-08-07T02:30:15.614Z,16.80
2022-08-07T02:33:07.239Z,17.00
2022-08-07T02:35:20.256Z,17.00
2022-08-07T02:37:50.688Z,16.90
2022-08-07T02:40:30.646Z,16.80
2022-08-07T02:42:50.857Z,16.70
2022-08-07T02:46:00.352Z,16.80
2022-08-07T02:47:53.778Z,16.60
2022-08-07T02:50:22.749Z,16.70
2022-08-07T02:53:06.209Z,16.50
2022-08-07T02:56:02.300Z,16.60
2022-08-07T02:58:09.901Z,16.40
2022-08-07T03:00:41.378Z,16.20
2022-08-07T03:03:13.480Z,16.40
2022-08-07T03:05:42.703Z,16.30
2022-08-07T03:08:13.175Z,16.40
2022-08-07T03:10:46.498Z,16.30
2022-08-07T03:13:19.748Z,16.30
2022-08-07T03:15:55.756Z,16.20
2022-08-07T03:18:38.146Z,16.20
2022-08-07T03:21:08.867Z,16.10
2022-08-07T03:24:19.407Z,16.10
2022-08-07T03:26:15.544Z,16.10
2022-08-07T03:28:43.376Z,16.80
2022-08-07T03:31:18.925Z,16.00
2022-08-07T03:34:00.426Z,15.90
2022-08-07T03:36:30.483Z,15.90
2022-08-07T03:39:05.275Z,15.80
2022-08-07T03:41:42.371Z,15.80
2022-08-07T03:44:05.741Z,15.70
2022-08-07T03:46:38.113Z,14.90
2022-08-07T03:49:10.124Z,15.70
2022-08-07T03:51:46.946Z,15.60
2022-08-07T03:54:35.110Z,15.60
2022-08-07T03:56:42.386Z,15.50
2022-08-07T03:59:17.127Z,16.30
2022-08-07T04:01:47.572Z,15.50
2022-08-07T04:04:19.199Z,15.40
2022-08-07T04:06:50.901Z,15.40
2022-08-07T04:09:19.357Z,15.40
2022-08-07T04:12:24.147Z,15.40
2022-08-07T04:14:37.833Z,15.70
2022-08-07T04:16:58.808Z,15.40
2022-08-07T04:19:51.267Z,15.50
2022-08-07T04:21:59.074Z,15.40
2022-08-07T04:24:49.449Z,15.40
2022-08-07T04:30:01.405Z,16.00
2022-08-07T04:32:27.288Z,15.50
2022-08-07T04:34:50.595Z,15.40
2022-08-07T04:37:20.349Z,15.30
2022-08-07T04:39:49.825Z,15.40
2022-08-07T04:42:18.697Z,15.40
2022-08-07T04:45:02.550Z,15.40
2022-08-07T04:47:57.357Z,15.50
2022-08-07T04:50:19.065Z,15.40
2022-08-07T04:53:39.911Z,15.40
2022-08-07T04:58:12.004Z,15.40
2022-08-07T04:59:09.110Z,15.40
2022-08-07T05:01:18.359Z,15.40
2022-08-07T05:04:07.886Z,15.40
2022-08-07T05:06:43.600Z,15.50
2022-08-07T05:09:46.356Z,15.70
2022-08-07T05:12:04.743Z,15.90
2022-08-07T05:14:56.533Z,16.20
2022-08-07T05:17:12.830Z,16.60
2022-08-07T05:19:46.172Z,16.80
2022-08-07T05:22:26.629Z,17.10
2022-08-07T05:24:48.394Z,17.40
2022-08-07T05:28:16.140Z,17.70
2022-08-07T20:41:28.980Z,17.80
2022-08-07T20:44:01.521Z,25.40
2022-08-07T20:46:44.427Z,25.10
2022-08-07T20:50:00.200Z,25.00
2022-08-07T20:51:36.107Z,24.90
2022-08-07T20:54:11.705Z,24.80
2022-08-07T20:56:40.943Z,24.70
2022-08-07T20:59:27.269Z,24.70
2022-08-07T21:01:45.677Z,24.60
2022-08-07T21:04:22.031Z,24.50
2022-08-07T21:06:46.690Z,24.50
2022-08-07T21:09:16.207Z,24.40
2022-08-07T21:11:50.574Z,24.40
2022-08-07T21:14:33.558Z,24.30
2022-08-07T21:18:01.977Z,24.20
2022-08-07T21:19:32.552Z,24.20
2022-08-07T21:21:59.097Z,24.20
2022-08-07T21:24:34.584Z,24.10
2022-08-07T21:27:22.100Z,24.10
2022-08-07T21:30:01.350Z,24.00
2022-08-07T21:32:52.649Z,24.00
2022-08-07T21:36:03.758Z,24.00
2022-08-07T21:38:06.566Z,23.90
2022-08-07T21:40:44.321Z,23.90
2022-08-07T21:43:23.198Z,23.90
2022-08-07T21:46:10.108Z,23.80
2022-08-07T21:48:42.278Z,23.80
2022-08-07T21:51:20.359Z,23.80
2022-08-07T21:53:46.583Z,23.80
2022-08-07T21:56:36.129Z,23.60
2022-08-07T21:58:52.787Z,23.60
2022-08-07T22:01:22.139Z,23.60
2022-08-07T22:04:12.378Z,23.50
2022-08-07T22:06:45.191Z,23.40
2022-08-07T22:09:18.587Z,23.40
2022-08-07T22:12:05.699Z,23.30
2022-08-07T22:14:34.871Z,23.30
2022-08-07T22:16:52.303Z,23.30
2022-08-07T22:19:39.454Z,23.20
2022-08-07T22:22:29.417Z,23.30
2022-08-07T22:24:57.422Z,23.30
2022-08-07T22:28:07.972Z,23.30
2022-08-07T22:30:14.658Z,23.20
2022-08-07T22:33:06.026Z,23.20
2022-08-07T22:35:40.365Z,23.10
2022-08-07T22:38:24.317Z,23.10
2022-08-07T22:41:02.897Z,23.00
2022-08-07T22:43:50.312Z,22.90
2022-08-07T22:47:06.128Z,22.80
2022-08-07T22:49:51.882Z,22.80
2022-08-07T22:52:36.832Z,22.70
2022-08-07T22:55:29.920Z,22.60
2022-08-07T22:58:04.921Z,22.60
2022-08-07T23:00:57.336Z,22.50
2022-08-07T23:03:57.901Z,22.50
2022-08-07T23:06:35.824Z,22.40
2022-08-07T23:10:03.849Z,22.40
2022-08-07T23:11:59.233Z,22.30
2022-08-07T23:14:30.551Z,22.20
2022-08-07T23:17:05.193Z,22.30
2022-08-07T23:20:03.564Z,22.10
2022-08-07T23:23:09.902Z,22.10
2022-08-07T23:25:57.894Z,22.10
2022-08-07T23:29:17.184Z,22.00
2022-08-07T23:34:20.636Z,21.90
2022-08-07T23:35:01.071Z,21.80
2022-08-07T23:37:36.028Z,21.70
2022-08-07T23:40:25.975Z,21.60
2022-08-07T23:43:16.968Z,21.60
2022-08-07T23:46:03.018Z,21.60
2022-08-07T23:48:44.662Z,21.50
2022-08-07T23:53:00.188Z,21.50
2022-08-07T23:54:36.461Z,21.90
2022-08-07T23:56:59.497Z,21.50
